Time;durP1;ratioP1;P1;durP2;ratioP2;P2;SDS_P1;SDS_P2;PMS_P1;PMS_P2;Temp;Humidity;BMP_temperature;BMP_pressure;BME280_temperature;BME280_humidity;BME280_pressure;Samples;Min_cycle;Max_cycle;Signal;HPM_P1;HPM_P2
2021/01/13 00:03:50;;;;;;;14.17;7.93;;;;;;;-0.04;94.50;97549.59;250926;1148;22966;-80
2021/01/13 00:08:56;;;;;;;12.60;7.20;;;;;;;-0.03;93.68;97543.30;251014;1156;22956;-82
2021/01/13 00:13:58;;;;;;;13.23;7.33;;;;;;;-0.03;92.49;97556.46;251106;1148;22960;-80
2021/01/13 00:19:00;;;;;;;14.10;7.05;;;;;;;-0.11;93.18;97548.20;251136;1149;22984;-81
2021/01/13 00:24:03;;;;;;;10.27;5.27;;;;;;;-0.24;91.69;97546.76;251247;1148;23372;-80
2021/01/13 00:29:05;;;;;;;8.80;4.77;;;;;;;-0.35;92.05;97562.45;251380;1152;22967;-80
2021/01/13 00:34:12;;;;;;;6.67;3.43;;;;;;;-0.42;91.37;97571.56;251385;1148;22743;-81
2021/01/13 00:39:14;;;;;;;5.00;2.53;;;;;;;-0.52;91.41;97573.06;251451;1148;22781;-80
2021/01/13 00:44:16;;;;;;;5.33;2.50;;;;;;;-0.58;91.26;97578.50;250769;1148;22963;-81
2021/01/13 00:49:18;;;;;;;3.97;2.30;;;;;;;-0.59;90.56;97592.69;251725;1152;22970;-82
2021/01/13 00:54:20;;;;;;;5.63;3.20;;;;;;;-0.63;90.74;97596.84;251531;1148;28502;-80
2021/01/13 00:59:23;;;;;;;6.73;3.77;;;;;;;-0.67;91.24;97609.70;250728;1148;26164;-81
2021/01/13 01:04:25;;;;;;;8.40;3.90;;;;;;;-0.79;90.18;97619.53;251411;1147;22971;-80
2021/01/13 01:09:27;;;;;;;7.60;4.17;;;;;;;-0.85;90.21;97629.19;251506;1155;22949;-81
2021/01/13 01:14:29;;;;;;;11.07;5.10;;;;;;;-0.82;90.85;97630.54;251503;1147;23094;-81
2021/01/13 01:19:31;;;;;;;8.37;4.27;;;;;;;-0.77;90.17;97635.84;251296;1150;23076;-82
2021/01/13 01:24:33;;;;;;;7.87;4.30;;;;;;;-0.76;90.10;97646.13;251216;1148;22969;-82
2021/01/13 01:29:35;;;;;;;9.75;4.85;;;;;;;-0.72;91.05;97638.55;251275;1156;22959;-80
2021/01/13 01:34:37;;;;;;;8.17;3.63;;;;;;;-0.66;91.01;97642.83;251192;1148;23026;-80
2021/01/13 01:39:39;;;;;;;4.73;3.27;;;;;;;-0.63;90.06;97646.81;251605;1148;23040;-80
2021/01/13 01:44:41;;;;;;;5.27;3.43;;;;;;;-0.57;89.59;97640.60;251172;1148;22970;-80
2021/01/13 01:49:45;;;;;;;6.07;3.40;;;;;;;-0.52;90.43;97649.35;251455;1155;22986;-82
2021/01/13 01:54:55;;;;;;;8.17;3.93;;;;;;;-0.53;89.46;97649.60;251188;1148;22936;-81
2021/01/13 02:00:01;;;;;;;7.00;4.23;;;;;;;-0.45;89.32;97661.52;251540;1155;23001;-82
2021/01/13 02:05:17;;;;;;;5.67;3.00;;;;;;;-0.35;90.70;97659.82;251444;1148;22927;-80
2021/01/13 02:10:19;;;;;;;5.23;3.20;;;;;;;-0.29;90.26;97663.31;250973;1150;23056;-82
2021/01/13 02:15:22;;;;;;;4.77;3.40;;;;;;;-0.24;90.05;97655.48;251600;1148;22911;-79
2021/01/13 02:20:28;;;;;;;5.60;3.13;;;;;;;-0.17;89.56;97657.91;251317;1153;22953;-81
2021/01/13 02:26:08;;;;;;;3.73;2.53;;;;;;;-0.18;89.19;97643.96;251024;1148;23739;-79
2021/01/13 02:31:22;;;;;;;4.70;3.33;;;;;;;-0.16;89.92;97650.83;251123;1147;23594;-81
2021/01/13 02:36:34;;;;;;;4.93;3.37;;;;;;;-0.16;89.90;97656.09;251209;1148;22976;-81
2021/01/13 02:41:42;;;;;;;6.00;3.57;;;;;;;-0.19;88.53;97652.89;251343;1155;22966;-81
2021/01/13 02:46:57;;;;;;;4.30;3.00;;;;;;;-0.22;88.75;97666.55;251600;1148;22899;-81
2021/01/13 02:52:18;;;;;;;4.97;2.90;;;;;;;-0.25;89.31;97667.05;251643;1148;25345;-82
2021/01/13 02:57:37;;;;;;;5.33;3.73;;;;;;;-0.32;88.62;97663.80;251631;1148;22973;-81
2021/01/13 03:02:40;;;;;;;6.63;3.80;;;;;;;-0.41;89.10;97665.27;251713;1148;22902;-80
2021/01/13 03:07:48;;;;;;;6.73;4.10;;;;;;;-0.45;88.57;97666.78;251600;1148;22938;-81
2021/01/13 03:12:59;;;;;;;7.30;4.17;;;;;;;-0.46;89.63;97678.34;251925;1153;22865;-81
2021/01/13 03:18:06;;;;;;;6.47;4.30;;;;;;;-0.38;89.84;97683.19;251927;1148;22975;-79
2021/01/13 03:23:21;;;;;;;5.00;3.70;;;;;;;-0.33;89.86;97685.89;251850;1147;22943;-81
2021/01/13 03:28:25;;;;;;;9.47;4.20;;;;;;;-0.38;88.67;97683.19;251676;1148;22948;-80
2021/01/13 03:33:33;;;;;;;7.10;4.43;;;;;;;-0.35;89.02;97688.77;251798;1148;23003;-81
2021/01/13 03:38:55;;;;;;;6.70;4.30;;;;;;;-0.33;89.50;97690.38;251221;1148;23273;-82
2021/01/13 03:44:08;;;;;;;6.70;4.05;;;;;;;-0.30;89.90;97695.92;251847;1153;23040;-80
2021/01/13 03:49:17;;;;;;;5.93;3.47;;;;;;;-0.30;89.23;97687.25;251807;1148;24552;-82
2021/01/13 03:54:24;;;;;;;4.27;2.77;;;;;;;-0.31;88.25;97698.80;251818;1148;23077;-80
2021/01/13 03:59:36;;;;;;;3.75;2.75;;;;;;;-0.32;87.76;97707.73;251538;1148;22953;-79
2021/01/13 04:04:59;;;;;;;3.37;2.50;;;;;;;-0.44;86.87;97713.91;251937;1153;22934;-80
2021/01/13 04:10:06;;;;;;;3.17;1.50;;;;;;;-0.53;86.84;97726.68;251654;1147;23119;-79
2021/01/13 04:15:09;;;;;;;1.87;1.30;;;;;;;-0.71;86.19;97743.52;251087;1150;23109;-80
2021/01/13 04:20:12;;;;;;;4.20;1.37;;;;;;;-0.81;85.67;97739.92;250884;1148;22946;-79
2021/01/13 04:25:15;;;;;;;3.70;1.00;;;;;;;-0.93;85.59;97761.84;251030;1148;22969;-80
2021/01/13 04:30:17;;;;;;;3.07;0.90;;;;;;;-1.07;85.20;97778.96;251487;1148;22960;-79
2021/01/13 04:35:21;;;;;;;2.27;1.13;;;;;;;-1.24;85.45;97774.47;251010;1148;22984;-81
2021/01/13 04:40:48;;;;;;;2.93;0.67;;;;;;;-1.38;85.04;97775.80;251475;1148;22996;-80
2021/01/13 04:45:51;;;;;;;1.90;0.77;;;;;;;-1.50;85.14;97770.57;251129;1147;25931;-80
2021/01/13 04:50:53;;;;;;;2.03;0.80;;;;;;;-1.51;85.33;97776.06;251252;1148;23055;-81
2021/01/13 04:55:56;;;;;;;1.53;0.73;;;;;;;-1.46;85.10;97776.17;250887;1148;26534;-79
2021/01/13 05:01:27;;;;;;;2.53;0.90;;;;;;;-1.47;85.61;97785.89;250673;1148;27450;-82
2021/01/13 05:06:47;;;;;;;4.23;1.60;;;;;;;-1.46;86.00;97790.09;251661;1147;23102;-80
2021/01/13 05:11:50;;;;;;;5.50;2.08;;;;;;;-1.42;85.10;97800.94;251319;1147;26363;-80
2021/01/13 05:17:03;;;;;;;6.10;2.40;;;;;;;-1.39;85.71;97796.00;250564;1148;24427;-81
2021/01/13 05:22:11;;;;;;;6.03;2.30;;;;;;;-1.36;85.87;97802.62;251311;1147;22904;-81
2021/01/13 05:28:04;;;;;;;5.35;2.70;;;;;;;-1.32;86.34;97810.84;250590;1148;22971;-80
2021/01/13 05:33:13;;;;;;;3.70;2.10;;;;;;;-1.32;85.99;97806.37;250438;1148;22942;-81
2021/01/13 05:38:42;;;;;;;6.80;2.20;;;;;;;-1.33;86.04;97815.31;250598;1148;22950;-86
2021/01/13 05:43:49;;;;;;;5.67;2.13;;;;;;;-1.38;86.81;97823.09;251191;1147;25973;-81
2021/01/13 05:48:54;;;;;;;3.30;1.70;;;;;;;-1.35;86.10;97822.61;250859;1149;23078;-80
2021/01/13 05:53:57;;;;;;;3.05;1.50;;;;;;;-1.38;85.53;97825.72;250870;1150;22973;-80
2021/01/13 05:59:01;;;;;;;6.23;2.20;;;;;;;-1.40;86.57;97814.63;250981;1153;22951;-81
2021/01/13 06:04:04;;;;;;;2.10;1.40;;;;;;;-1.43;86.07;97813.29;250648;1147;23046;-82
2021/01/13 06:09:07;;;;;;;6.33;1.37;;;;;;;-1.46;85.85;97818.20;251119;1148;22980;-81
2021/01/13 06:14:27;;;;;;;3.20;1.60;;;;;;;-1.48;85.75;97818.44;251324;1150;23637;-80
2021/01/13 06:19:30;;;;;;;;;;;;;;;-1.48;86.23;97825.50;250729;1152;23094;-80
2021/01/13 06:24:36;;;;;;;3.07;1.63;;;;;;;-1.57;86.17;97840.84;250777;1148;21576;-80
2021/01/13 06:29:46;;;;;;;5.83;2.07;;;;;;;-1.59;86.53;97848.95;250532;1156;23095;-80
2021/01/13 06:34:55;;;;;;;3.60;1.92;;;;;;;-1.61;86.40;97855.46;250650;1148;22973;-80
2021/01/13 06:40:00;;;;;;;3.40;2.43;;;;;;;-1.57;85.88;97861.84;250247;1151;23138;-77
2021/01/13 06:45:03;;;;;;;5.53;2.40;;;;;;;-1.51;86.33;97865.38;250351;1148;23001;-80
2021/01/13 06:50:12;;;;;;;7.40;2.90;;;;;;;-1.44;85.65;97866.04;250230;1148;23103;-78
2021/01/13 06:55:15;;;;;;;9.33;3.90;;;;;;;-1.46;86.32;97881.25;250614;1147;22984;-77
2021/01/13 07:00:22;;;;;;;7.60;3.80;;;;;;;-1.37;85.80;97882.50;249893;1148;22976;-78
2021/01/13 07:05:33;;;;;;;10.70;3.90;;;;;;;-1.29;86.17;97889.98;250484;1148;22974;-78
2021/01/13 07:10:39;;;;;;;17.60;6.07;;;;;;;-1.26;86.05;97900.06;250731;1147;23781;-77
2021/01/13 07:15:41;;;;;;;13.80;5.03;;;;;;;-1.25;85.39;97896.38;250783;1148;22951;-76
2021/01/13 07:20:48;;;;;;;8.60;4.87;;;;;;;-1.40;85.05;97899.52;250153;1148;22901;-76
2021/01/13 07:25:50;;;;;;;10.40;5.20;;;;;;;-1.55;84.96;97909.71;251132;1147;22983;-79
2021/01/13 07:31:09;;;;;;;15.93;5.37;;;;;;;-1.54;85.40;97913.91;250411;1147;22947;-77
2021/01/13 07:36:19;;;;;;;15.67;6.47;;;;;;;-1.42;85.40;97912.08;250017;1148;23039;-77
2021/01/13 07:42:10;;;;;;;13.40;5.53;;;;;;;-1.22;85.25;97916.96;250754;1147;22976;-75
2021/01/13 07:47:30;;;;;;;8.27;4.07;;;;;;;-1.00;85.71;97916.31;250367;1148;22944;-77
2021/01/13 07:52:41;;;;;;;4.90;3.00;;;;;;;-0.76;84.96;97924.11;250435;1148;23451;-77
2021/01/13 07:57:51;;;;;;;9.25;3.37;;;;;;;-0.48;84.94;97925.12;250467;1147;22890;-77
2021/01/13 08:03:12;;;;;;;;;;;;;;;-0.28;84.81;97922.84;250548;1148;23017;-76
2021/01/13 08:08:23;;;;;;;5.17;2.43;;;;;;;-0.08;85.10;97925.00;250576;1148;21580;-78
2021/01/13 08:13:47;;;;;;;13.30;4.47;;;;;;;0.09;84.62;97929.47;250676;1148;22995;-76
2021/01/13 08:19:52;;;;;;;10.70;5.00;;;;;;;0.21;83.77;97931.99;250864;1148;22952;-76
2021/01/13 08:25:01;;;;;;;7.50;4.30;;;;;;;0.31;84.02;97934.80;250584;1148;23030;-76
2021/01/13 08:30:05;;;;;;;14.07;5.60;;;;;;;0.42;83.83;97941.80;250070;1148;23208;-76
2021/01/13 08:35:08;;;;;;;13.47;6.13;;;;;;;0.66;83.76;97939.74;250303;1146;23883;-77
2021/01/13 08:40:27;;;;;;;11.70;5.60;;;;;;;0.79;81.98;97933.30;250068;1148;27145;-76
2021/01/13 08:45:36;;;;;;;9.93;5.27;;;;;;;0.77;82.00;97943.31;249961;1148;26379;-78
2021/01/13 08:50:41;;;;;;;13.38;6.53;;;;;;;0.67;81.14;97925.53;250772;1148;26025;-77
2021/01/13 08:55:51;;;;;;;9.73;4.77;;;;;;;0.67;82.13;97925.53;250618;1148;22889;-77
2021/01/13 09:01:08;;;;;;;9.60;3.50;;;;;;;0.84;81.77;97936.02;250497;1148;22962;-76
2021/01/13 09:06:24;;;;;;;9.30;4.03;;;;;;;1.06;82.54;97937.05;250065;1148;22816;-77
2021/01/13 09:11:38;;;;;;;9.43;4.10;;;;;;;1.16;81.21;97939.78;250143;1148;23094;-76
2021/01/13 09:16:47;;;;;;;7.60;4.20;;;;;;;1.03;80.71;97940.97;250165;1148;22932;-74
2021/01/13 09:21:58;;;;;;;7.20;3.80;;;;;;;0.98;80.25;97951.45;250182;1148;22948;-78
2021/01/13 09:27:02;;;;;;;7.40;3.83;;;;;;;0.88;80.49;97948.70;250313;1147;23020;-77
2021/01/13 09:32:16;;;;;;;13.20;5.73;;;;;;;0.76;81.22;97949.63;250136;1148;22974;-76
2021/01/13 09:37:22;;;;;;;14.03;6.83;;;;;;;0.77;80.98;97948.59;250184;1148;22974;-74
2021/01/13 09:42:37;;;;;;;13.10;6.50;;;;;;;0.88;81.19;97940.79;250262;1148;23733;-76
2021/01/13 09:47:40;;;;;;;13.63;6.37;;;;;;;1.19;81.20;97934.83;252516;1147;22965;-75
2021/01/13 09:52:47;;;;;;;10.95;5.95;;;;;;;1.39;81.20;97925.53;250766;1147;22933;-77
2021/01/13 09:58:13;;;;;;;10.50;4.83;;;;;;;1.42;80.27;97921.59;250520;1148;22974;-74
2021/01/13 10:03:18;;;;;;;14.43;5.33;;;;;;;1.08;78.92;97924.39;250105;1148;23034;-76
2021/01/13 10:08:29;;;;;;;13.23;6.00;;;;;;;0.80;80.30;97936.76;250240;1147;23379;-78
2021/01/13 10:13:31;;;;;;;10.67;5.77;;;;;;;0.68;80.43;97926.31;250342;1147;22967;-78
2021/01/13 10:18:34;;;;;;;13.20;6.30;;;;;;;0.70;81.43;97923.43;250214;1147;22976;-75
2021/01/13 10:23:37;;;;;;;12.47;5.93;;;;;;;0.71;81.27;97928.45;250272;1148;22939;-77
2021/01/13 10:28:40;;;;;;;13.70;5.47;;;;;;;0.78;81.33;97926.43;250496;1148;27251;-76
2021/01/13 10:33:51;;;;;;;13.15;6.25;;;;;;;0.77;81.53;97929.31;250183;1148;23392;-77
2021/01/13 10:38:54;;;;;;;11.17;5.43;;;;;;;0.87;81.53;97920.73;250469;1147;26357;-75
2021/01/13 10:44:04;;;;;;;11.20;5.65;;;;;;;0.82;81.88;97918.84;250811;1147;23101;-76
2021/01/13 10:49:13;;;;;;;13.50;6.33;;;;;;;0.87;82.75;97921.55;252260;1148;23648;-77
2021/01/13 10:54:19;;;;;;;11.90;6.67;;;;;;;0.92;81.89;97911.03;250208;1148;22983;-75
2021/01/13 10:59:23;;;;;;;15.23;8.10;;;;;;;0.80;81.80;97923.58;250247;1148;22945;-76
2021/01/13 11:04:26;;;;;;;16.85;8.40;;;;;;;0.63;81.81;97915.69;250555;1147;22945;-78
2021/01/13 11:09:29;;;;;;;20.03;8.63;;;;;;;0.61;82.80;97920.42;250141;1148;23158;-76
2021/01/13 11:14:43;;;;;;;11.47;5.83;;;;;;;0.61;82.91;97912.52;250441;1148;23190;-75
2021/01/13 11:19:55;;;;;;;12.40;6.23;;;;;;;0.62;82.80;97903.58;250088;1148;26006;-75
2021/01/13 11:24:58;;;;;;;12.70;6.80;;;;;;;0.49;82.88;97894.98;250270;1148;23001;-75
2021/01/13 11:30:07;;;;;;;10.95;5.15;;;;;;;0.40;83.46;97882.47;249873;1148;23100;-73
2021/01/13 11:35:10;;;;;;;9.67;4.93;;;;;;;0.53;84.10;97890.00;249985;1148;22952;-76
2021/01/13 11:40:18;;;;;;;9.83;4.03;;;;;;;0.79;84.36;97879.79;250275;1147;22963;-77
2021/01/13 11:45:29;;;;;;;7.77;3.90;;;;;;;0.98;84.36;97870.51;250374;1148;22890;-78
2021/01/13 11:50:34;;;;;;;;;;;;;;;1.08;83.94;97877.73;251545;1146;22974;-77
2021/01/13 11:55:36;;;;;;;5.20;3.03;;;;;;;1.11;83.67;97874.59;250396;1148;21605;-77
2021/01/13 12:00:39;;;;;;;4.43;3.27;;;;;;;1.15;83.30;97883.60;250391;1148;23054;-75
2021/01/13 12:05:43;;;;;;;7.50;4.47;;;;;;;1.28;83.41;97887.67;250569;1148;22972;-76
2021/01/13 12:10:53;;;;;;;7.70;4.57;;;;;;;1.46;83.69;97891.02;250582;1147;22940;-77
2021/01/13 12:15:57;;;;;;;8.97;4.50;;;;;;;1.63;83.82;97894.33;250353;1148;23802;-74
2021/01/13 12:21:23;;;;;;;7.00;4.55;;;;;;;1.87;84.21;97884.23;250658;1147;22967;-74
2021/01/13 12:26:30;;;;;;;6.57;4.43;;;;;;;2.04;83.46;97888.55;250417;1148;23138;-75
2021/01/13 12:31:36;;;;;;;9.53;4.87;;;;;;;2.12;82.84;97887.30;250354;1148;23024;-75
2021/01/13 12:36:39;;;;;;;9.93;5.60;;;;;;;2.11;83.31;97888.34;250672;1148;23030;-75
2021/01/13 12:41:42;;;;;;;12.07;6.60;;;;;;;2.18;82.07;97883.63;250468;1147;23084;-75
2021/01/13 12:46:58;;;;;;;16.07;7.43;;;;;;;2.09;82.47;97901.02;250615;1147;23344;-74
2021/01/13 12:52:00;;;;;;;15.33;7.23;;;;;;;1.93;82.09;97895.63;250714;1148;22976;-75
2021/01/13 12:57:04;;;;;;;9.30;5.50;;;;;;;1.84;82.54;97897.92;250443;1147;22967;-75
2021/01/13 13:02:07;;;;;;;9.97;5.07;;;;;;;1.86;82.55;97898.48;250457;1145;23099;-75
2021/01/13 13:07:09;;;;;;;9.20;4.85;;;;;;;2.05;82.48;97892.80;250695;1147;22919;-77
2021/01/13 13:12:12;;;;;;;10.07;5.30;;;;;;;2.14;82.93;97899.20;250636;1147;23075;-76
2021/01/13 13:17:14;;;;;;;9.57;4.10;;;;;;;2.11;82.07;97893.62;250897;1147;22948;-75
2021/01/13 13:22:17;;;;;;;8.67;5.10;;;;;;;1.96;81.62;97889.02;250415;1147;23093;-75
2021/01/13 13:27:20;;;;;;;7.80;4.43;;;;;;;1.72;81.65;97892.02;250098;1148;22980;-74
2021/01/13 13:32:23;;;;;;;10.40;5.35;;;;;;;1.54;82.15;97890.56;250133;1147;23106;-75
2021/01/13 13:37:25;;;;;;;8.47;5.57;;;;;;;1.44;81.86;97901.02;250359;1147;23360;-76
2021/01/13 13:42:33;;;;;;;9.87;6.00;;;;;;;1.43;81.96;97884.39;250122;1148;22982;-74
2021/01/13 13:47:35;;;;;;;10.25;5.45;;;;;;;1.34;81.82;97881.42;250369;1148;27331;-75
2021/01/13 13:52:38;;;;;;;10.20;5.73;;;;;;;1.21;81.41;97892.36;250164;1147;22929;-73
2021/01/13 13:57:43;;;;;;;9.07;4.87;;;;;;;1.16;82.20;97892.30;249984;1148;23850;-75
2021/01/13 14:02:47;;;;;;;13.67;6.63;;;;;;;0.97;81.79;97897.13;250187;1148;22957;-76
2021/01/13 14:07:50;;;;;;;9.40;5.30;;;;;;;0.88;82.20;97898.59;250305;1147;23119;-75
2021/01/13 14:12:53;;;;;;;9.70;5.43;;;;;;;0.73;82.16;97889.48;250289;1148;22945;-75
2021/01/13 14:17:55;;;;;;;8.60;5.33;;;;;;;0.59;82.02;97891.68;250038;1148;22974;-75
2021/01/13 14:22:58;;;;;;;10.57;5.77;;;;;;;0.50;82.48;97893.95;250146;1148;22980;-79
2021/01/13 14:28:00;;;;;;;8.07;4.57;;;;;;;0.48;82.37;97885.48;250240;1148;22999;-75
2021/01/13 14:33:03;;;;;;;10.40;5.77;;;;;;;0.44;83.16;97878.31;250339;1148;25973;-75
2021/01/13 14:38:05;;;;;;;11.80;6.55;;;;;;;0.43;83.18;97887.25;250384;1148;22960;-78
2021/01/13 14:43:07;;;;;;;13.03;6.13;;;;;;;0.41;82.86;97895.41;250150;1147;22967;-77
2021/01/13 14:48:10;;;;;;;16.57;8.67;;;;;;;0.32;82.85;97894.21;250049;1148;26517;-75
2021/01/13 14:53:12;;;;;;;15.00;6.47;;;;;;;0.24;82.14;97903.34;249956;1148;22945;-77
2021/01/13 14:58:15;;;;;;;9.35;5.25;;;;;;;0.16;82.45;97894.00;250461;1147;23410;-77
2021/01/13 15:03:17;;;;;;;11.00;5.67;;;;;;;0.12;82.58;97894.73;250790;1148;22987;-77
2021/01/13 15:08:23;;;;;;;8.90;5.37;;;;;;;0.12;82.01;97879.72;250880;1147;26380;-77
2021/01/13 15:13:25;;;;;;;9.87;4.87;;;;;;;0.12;82.50;97877.09;250171;1148;26679;-75
2021/01/13 15:18:27;;;;;;;7.37;4.03;;;;;;;0.15;82.37;97879.27;249637;1148;23004;-77
2021/01/13 15:23:29;;;;;;;7.60;4.07;;;;;;;0.19;82.63;97881.41;249793;1148;23048;-75
2021/01/13 15:28:32;;;;;;;8.10;4.70;;;;;;;0.16;81.69;97888.73;249753;1148;23119;-77
2021/01/13 15:33:36;;;;;;;7.07;4.27;;;;;;;0.20;82.14;97893.52;249896;1147;23444;-75
2021/01/13 15:38:38;;;;;;;10.40;5.85;;;;;;;0.21;82.00;97888.03;249988;1148;23045;-76
2021/01/13 15:43:41;;;;;;;8.67;4.03;;;;;;;0.25;82.58;97875.97;249668;1148;23127;-78
2021/01/13 15:48:43;;;;;;;9.50;4.10;;;;;;;0.26;81.37;97876.75;249519;1148;22960;-79
2021/01/13 15:53:46;;;;;;;11.17;5.23;;;;;;;0.19;81.94;97868.23;249929;1148;22956;-77
2021/01/13 15:59:00;;;;;;;11.53;5.77;;;;;;;0.16;82.11;97887.95;249820;1147;27112;-76
2021/01/13 16:04:03;;;;;;;16.50;7.45;;;;;;;0.09;82.58;97880.21;249756;1148;25871;-77
2021/01/13 16:09:07;;;;;;;12.60;6.50;;;;;;;0.03;82.29;97883.83;249824;1148;22964;-76
2021/01/13 16:14:14;;;;;;;14.20;6.83;;;;;;;0.00;83.33;97879.05;249763;1148;22951;-76
2021/01/13 16:19:16;;;;;;;12.95;6.65;;;;;;;-0.08;83.78;97871.55;249828;1148;27228;-75
2021/01/13 16:24:19;;;;;;;18.50;8.63;;;;;;;-0.18;83.99;97862.45;249602;1148;23647;-77
2021/01/13 16:29:21;;;;;;;17.80;7.00;;;;;;;-0.18;84.45;97859.03;249635;1148;22954;-79
2021/01/13 16:34:24;;;;;;;11.37;6.00;;;;;;;-0.16;84.66;97856.95;249550;1148;22973;-76
2021/01/13 16:39:51;;;;;;;13.65;7.20;;;;;;;-0.17;84.26;97852.70;249768;1148;22944;-75
2021/01/13 16:44:57;;;;;;;13.55;7.95;;;;;;;-0.18;84.29;97843.23;249658;1148;22957;-77
2021/01/13 16:49:59;;;;;;;16.73;7.87;;;;;;;-0.21;84.38;97843.70;249809;1148;24442;-78
2021/01/13 16:55:05;;;;;;;22.15;7.60;;;;;;;-0.33;84.89;97835.12;249681;1148;22967;-78
2021/01/13 17:00:14;;;;;;;14.55;7.15;;;;;;;-0.45;85.30;97824.66;249992;1148;22948;-77
2021/01/13 17:05:18;;;;;;;18.37;8.20;;;;;;;-0.53;84.82;97821.39;249803;1148;23045;-76
2021/01/13 17:10:21;;;;;;;13.70;7.60;;;;;;;-0.58;84.93;97831.83;250131;1148;24546;-79
2021/01/13 17:15:23;;;;;;;15.63;8.23;;;;;;;-0.64;86.02;97816.20;249994;1148;23104;-77
2021/01/13 17:20:26;;;;;;;22.83;10.53;;;;;;;-0.65;86.16;97807.52;249701;1148;22945;-77
2021/01/13 17:25:29;;;;;;;17.57;9.27;;;;;;;-0.69;86.26;97814.29;249849;1148;22963;-77
2021/01/13 17:30:32;;;;;;;19.17;9.50;;;;;;;-0.64;85.73;97806.48;249662;1148;22980;-77
2021/01/13 17:35:41;;;;;;;16.50;8.30;;;;;;;-0.64;85.88;97795.97;249683;1148;23081;-77
2021/01/13 17:40:44;;;;;;;24.03;11.17;;;;;;;-0.66;85.75;97795.39;250126;1148;23078;-78
2021/01/13 17:45:47;;;;;;;21.53;9.93;;;;;;;-0.72;85.96;97793.73;249948;1148;26046;-76
2021/01/13 17:50:49;;;;;;;20.80;9.73;;;;;;;-0.76;85.88;97782.87;249871;1148;22975;-77
2021/01/13 17:55:52;;;;;;;22.30;10.60;;;;;;;-0.76;86.96;97782.09;249623;1148;22961;-76
2021/01/13 18:00:55;;;;;;;19.97;10.43;;;;;;;-0.77;86.42;97770.78;249970;1148;22942;-77
2021/01/13 18:06:02;;;;;;;20.80;9.77;;;;;;;-0.74;86.38;97774.75;250037;1148;22956;-77
2021/01/13 18:11:05;;;;;;;20.03;9.07;;;;;;;-0.70;87.33;97773.23;249839;1148;22949;-78
2021/01/13 18:16:07;;;;;;;17.97;9.63;;;;;;;-0.74;87.22;97766.86;249723;1148;22945;-76
2021/01/13 18:21:09;;;;;;;21.13;10.73;;;;;;;-0.80;86.17;97765.20;249815;1148;22947;-76
2021/01/13 18:26:12;;;;;;;18.97;10.37;;;;;;;-0.86;87.20;97757.22;249818;1148;23089;-77
2021/01/13 18:31:14;;;;;;;26.47;12.97;;;;;;;-0.87;87.99;97760.91;249927;1148;22964;-76
2021/01/13 18:36:17;;;;;;;29.75;15.10;;;;;;;-0.82;87.30;97764.66;249683;1148;22951;-77
2021/01/13 18:41:19;;;;;;;29.87;13.93;;;;;;;-0.79;87.96;97761.53;249609;1148;23094;-77
2021/01/13 18:46:23;;;;;;;24.50;11.30;;;;;;;-0.72;88.20;97767.43;249753;1148;23005;-77
2021/01/13 18:51:25;;;;;;;27.23;13.10;;;;;;;-0.62;88.13;97759.69;249773;1148;22967;-77
2021/01/13 18:56:27;;;;;;;22.17;10.73;;;;;;;-0.52;87.40;97751.14;249614;1148;22983;-76
2021/01/13 19:01:29;;;;;;;20.77;10.63;;;;;;;-0.55;87.06;97752.42;249641;1148;22982;-79
2021/01/13 19:06:33;;;;;;;22.70;12.00;;;;;;;-0.55;87.69;97734.00;249853;1148;25986;-76
2021/01/13 19:11:40;;;;;;;25.70;12.27;;;;;;;-0.53;87.72;97731.95;249604;1148;22949;-77
2021/01/13 19:16:42;;;;;;;23.53;11.70;;;;;;;-0.52;87.58;97719.58;249741;1148;22911;-77
2021/01/13 19:21:44;;;;;;;35.47;17.23;;;;;;;-0.54;87.64;97719.81;249585;1148;23039;-76
2021/01/13 19:26:47;;;;;;;28.40;14.00;;;;;;;-0.55;87.24;97715.59;249895;1148;22948;-78
2021/01/13 19:31:49;;;;;;;35.30;16.55;;;;;;;-0.54;86.75;97711.92;249840;1148;23045;-77
2021/01/13 19:36:52;;;;;;;40.73;18.70;;;;;;;-0.54;87.45;97700.62;249976;1148;22942;-77
2021/01/13 19:41:54;;;;;;;35.90;15.95;;;;;;;-0.59;87.40;97690.83;249812;1151;23331;-79
2021/01/13 19:46:56;;;;;;;33.95;16.85;;;;;;;-0.64;87.49;97696.02;249896;1148;22938;-75
2021/01/13 19:51:58;;;;;;;41.20;17.70;;;;;;;-0.69;87.21;97685.41;249737;1148;22945;-77
2021/01/13 19:57:01;;;;;;;37.23;18.27;;;;;;;-0.75;87.23;97679.28;249721;1148;22977;-76
2021/01/13 20:02:16;;;;;;;34.30;16.37;;;;;;;-0.77;87.78;97670.03;249926;1148;23141;-78
2021/01/13 20:07:20;;;;;;;35.47;17.37;;;;;;;-0.77;87.63;97665.59;249499;1148;26133;-78
2021/01/13 20:12:23;;;;;;;44.10;19.10;;;;;;;-0.78;88.13;97663.99;249764;1148;22908;-78
2021/01/13 20:17:29;;;;;;;37.35;18.25;;;;;;;-0.75;87.17;97654.83;249758;1148;22953;-78
2021/01/13 20:22:31;;;;;;;44.27;20.53;;;;;;;-0.68;87.18;97658.08;249959;1148;22960;-79
2021/01/13 20:27:35;;;;;;;64.77;27.40;;;;;;;-0.66;87.05;97648.09;249615;1148;22982;-77
2021/01/13 20:32:49;;;;;;;68.77;28.50;;;;;;;-0.67;87.55;97654.41;249882;1148;22945;-78
2021/01/13 20:37:52;;;;;;;82.40;34.90;;;;;;;-0.76;87.33;97640.08;249744;1148;22980;-78
2021/01/13 20:42:56;;;;;;;67.13;30.83;;;;;;;-0.83;87.66;97640.24;249844;1148;23255;-77
2021/01/13 20:47:59;;;;;;;69.20;30.80;;;;;;;-0.87;87.45;97626.80;249829;1148;23444;-79
2021/01/13 20:53:01;;;;;;;81.65;35.25;;;;;;;-0.89;87.08;97623.60;249903;1148;23038;-77
2021/01/13 20:58:03;;;;;;;91.33;39.40;;;;;;;-0.88;87.14;97614.69;249617;1148;22994;-77
2021/01/13 21:03:05;;;;;;;96.67;37.00;;;;;;;-0.87;87.30;97613.66;249858;1147;26088;-77
2021/01/13 21:08:09;;;;;;;83.70;34.85;;;;;;;-0.89;87.61;97612.30;249699;1148;24875;-78
2021/01/13 21:13:12;;;;;;;83.57;34.47;;;;;;;-0.88;87.91;97601.53;249708;1148;23101;-76
2021/01/13 21:18:14;;;;;;;64.33;28.87;;;;;;;-0.83;87.76;97602.64;249811;1148;23480;-77
2021/01/13 21:23:16;;;;;;;60.00;26.53;;;;;;;-0.82;87.63;97596.36;249463;1148;23012;-75
2021/01/13 21:28:18;;;;;;;65.50;26.45;;;;;;;-0.85;86.77;97589.74;249579;1148;22965;-77
2021/01/13 21:33:20;;;;;;;64.13;27.33;;;;;;;-0.84;87.62;97586.05;249650;1148;26379;-77
2021/01/13 21:38:23;;;;;;;51.20;22.70;;;;;;;-0.91;87.87;97578.36;249706;1148;23115;-77
2021/01/13 21:43:29;;;;;;;45.63;22.10;;;;;;;-0.92;87.96;97560.99;249594;1148;23020;-76
2021/01/13 21:48:31;;;;;;;46.20;19.87;;;;;;;-0.91;88.07;97554.70;249854;1148;22969;-77
2021/01/13 21:53:33;;;;;;;41.40;17.70;;;;;;;-0.93;88.35;97546.25;249722;1148;22967;-76
2021/01/13 21:58:35;;;;;;;36.80;16.50;;;;;;;-0.94;88.48;97541.23;249758;1148;22945;-78
2021/01/13 22:03:37;;;;;;;36.40;15.50;;;;;;;-0.92;88.12;97536.55;249758;1148;22936;-77
2021/01/13 22:08:40;;;;;;;31.67;16.67;;;;;;;-0.94;88.86;97534.13;249717;1148;26040;-75
2021/01/13 22:13:42;;;;;;;25.33;12.80;;;;;;;-0.90;88.71;97514.20;249981;1147;23059;-77
2021/01/13 22:18:45;;;;;;;24.30;12.30;;;;;;;-0.94;88.21;97512.31;249649;1148;22982;-74
2021/01/13 22:23:48;;;;;;;30.80;14.37;;;;;;;-1.02;88.53;97508.30;249669;1148;23031;-75
2021/01/13 22:28:54;;;;;;;27.95;13.75;;;;;;;-1.06;87.85;97499.30;249809;1148;22956;-77
2021/01/13 22:33:57;;;;;;;36.55;17.50;;;;;;;-1.12;88.63;97495.00;249899;1148;22991;-75
2021/01/13 22:38:59;;;;;;;26.75;14.20;;;;;;;-1.15;87.54;97496.28;249601;1148;23042;-77
2021/01/13 22:44:02;;;;;;;27.40;15.05;;;;;;;-1.19;88.28;97487.30;249598;1148;23128;-78
2021/01/13 22:49:04;;;;;;;33.15;15.10;;;;;;;-1.20;88.06;97480.47;249730;1148;22995;-77
2021/01/13 22:54:06;;;;;;;25.87;12.70;;;;;;;-1.19;88.61;97471.52;249621;1148;22948;-76
2021/01/13 22:59:08;;;;;;;25.80;13.90;;;;;;;-1.21;88.24;97466.52;249650;1148;22911;-77
2021/01/13 23:04:10;;;;;;;30.17;14.47;;;;;;;-1.28;87.63;97455.39;249832;1148;22930;-74
2021/01/13 23:09:12;;;;;;;34.25;17.00;;;;;;;-1.33;87.69;97457.16;250041;1148;23042;-76
2021/01/13 23:14:15;;;;;;;40.07;17.20;;;;;;;-1.35;87.81;97449.53;249450;1148;23048;-77
2021/01/13 23:19:17;;;;;;;35.73;16.53;;;;;;;-1.38;88.24;97434.26;249698;1148;22972;-75
2021/01/13 23:24:19;;;;;;;36.10;16.30;;;;;;;-1.36;88.51;97437.42;249885;1148;22913;-75
2021/01/13 23:29:21;;;;;;;40.80;19.40;;;;;;;-1.32;87.73;97432.48;249843;1148;23022;-77
2021/01/13 23:34:23;;;;;;;34.30;16.73;;;;;;;-1.28;87.89;97430.96;250044;1147;22943;-77
2021/01/13 23:39:25;;;;;;;33.83;16.47;;;;;;;-1.27;88.28;97411.54;249577;1148;23427;-75